Grand Pass, Missouri
Current Conditions -  °F | °C
As of 5:58 AM on Sunday 25 Jan 2015 (Local Time) from KSZL Reporting Station
Broken Clouds Broken Clouds  
Wind Chill: 40°   Ceiling: 5500
Heat Index: 45°   Visibility: 10mi
Dew Point: 41°   Wind: 9mph
Humidity: 86%   Direction: 290°WNW
Pressure: 29.62"   Gusts: NA
Location:  39.2052°N, 93.3822°W
Report Text: KSZL 251158Z AUTO 29008KT 10SM FEW039 BKN055 07/05 A2962 RMK AO2 SLP034 60001 70002 T00700048 10079 20066 55002 $
Loading
Personal Weather Stations






























Interactive Weather Map New forecast layout! Learn more

10-Day Weather Forecast

Advertisements
Track Severe Weather on mobile